sensor_id;sensor_type;location;lat;lon;timestamp;P1;durP1;ratioP1;P2;durP2;ratioP2
72325;SDS011;60278;47.980;18.780;2023-09-19T00:00:49;18.98;;;7.47;;
72325;SDS011;60278;47.980;18.780;2023-09-19T00:03:53;16.65;;;7.63;;
72325;SDS011;60278;47.980;18.780;2023-09-19T00:06:55;16.50;;;6.73;;
72325;SDS011;60278;47.980;18.780;2023-09-19T00:09:57;15.45;;;7.32;;
72325;SDS011;60278;47.980;18.780;2023-09-19T00:13:00;18.98;;;7.18;;
72325;SDS011;60278;47.980;18.780;2023-09-19T00:16:08;16.67;;;7.32;;
72325;SDS011;60278;47.980;18.780;2023-09-19T00:19:10;14.82;;;7.00;;
72325;SDS011;60278;47.980;18.780;2023-09-19T00:22:12;17.50;;;7.47;;
72325;SDS011;60278;47.980;18.780;2023-09-19T00:25:15;16.95;;;6.95;;
72325;SDS011;60278;47.980;18.780;2023-09-19T00:28:17;15.40;;;7.00;;
72325;SDS011;60278;47.980;18.780;2023-09-19T00:31:22;17.95;;;7.60;;
72325;SDS011;60278;47.980;18.780;2023-09-19T00:34:28;16.63;;;7.28;;
72325;SDS011;60278;47.980;18.780;2023-09-19T00:37:31;14.07;;;7.03;;
72325;SDS011;60278;47.980;18.780;2023-09-19T00:40:33;15.98;;;7.82;;
72325;SDS011;60278;47.980;18.780;2023-09-19T00:43:37;17.30;;;7.05;;
72325;SDS011;60278;47.980;18.780;2023-09-19T00:46:39;17.70;;;6.82;;
72325;SDS011;60278;47.980;18.780;2023-09-19T00:49:42;15.27;;;7.30;;
72325;SDS011;60278;47.980;18.780;2023-09-19T00:52:46;16.57;;;6.93;;
72325;SDS011;60278;47.980;18.780;2023-09-19T00:55:48;20.98;;;7.28;;
72325;SDS011;60278;47.980;18.780;2023-09-19T00:58:51;19.05;;;7.38;;
72325;SDS011;60278;47.980;18.780;2023-09-19T01:01:54;21.80;;;7.45;;
72325;SDS011;60278;47.980;18.780;2023-09-19T01:04:56;15.93;;;7.57;;
72325;SDS011;60278;47.980;18.780;2023-09-19T01:07:59;15.73;;;7.20;;
72325;SDS011;60278;47.980;18.780;2023-09-19T01:11:20;13.43;;;7.43;;
72325;SDS011;60278;47.980;18.780;2023-09-19T01:14:37;17.00;;;7.20;;
72325;SDS011;60278;47.980;18.780;2023-09-19T01:17:43;13.57;;;7.00;;
72325;SDS011;60278;47.980;18.780;2023-09-19T01:30:32;18.17;;;7.88;;
72325;SDS011;60278;47.980;18.780;2023-09-19T01:33:55;16.88;;;7.05;;
72325;SDS011;60278;47.980;18.780;2023-09-19T01:37:08;18.08;;;7.72;;
72325;SDS011;60278;47.980;18.780;2023-09-19T01:40:11;19.63;;;7.40;;
72325;SDS011;60278;47.980;18.780;2023-09-19T01:43:36;19.52;;;7.07;;
72325;SDS011;60278;47.980;18.780;2023-09-19T01:46:40;14.73;;;7.13;;
72325;SDS011;60278;47.980;18.780;2023-09-19T01:49:44;12.73;;;6.60;;
72325;SDS011;60278;47.980;18.780;2023-09-19T01:53:02;14.38;;;5.88;;
72325;SDS011;60278;47.980;18.780;2023-09-19T01:56:07;12.70;;;4.90;;
72325;SDS011;60278;47.980;18.780;2023-09-19T01:59:11;14.10;;;6.40;;
72325;SDS011;60278;47.980;18.780;2023-09-19T02:02:15;15.20;;;6.68;;
72325;SDS011;60278;47.980;18.780;2023-09-19T02:05:24;14.18;;;5.07;;
72325;SDS011;60278;47.980;18.780;2023-09-19T02:08:26;17.77;;;5.70;;
72325;SDS011;60278;47.980;18.780;2023-09-19T02:11:28;14.77;;;6.17;;
72325;SDS011;60278;47.980;18.780;2023-09-19T02:14:31;15.50;;;5.10;;
72325;SDS011;60278;47.980;18.780;2023-09-19T02:17:33;13.45;;;4.68;;
72325;SDS011;60278;47.980;18.780;2023-09-19T02:20:37;10.98;;;4.25;;
72325;SDS011;60278;47.980;18.780;2023-09-19T02:23:40;11.27;;;3.78;;
72325;SDS011;60278;47.980;18.780;2023-09-19T02:26:43;9.20;;;3.40;;
72325;SDS011;60278;47.980;18.780;2023-09-19T02:29:46;9.75;;;3.47;;
72325;SDS011;60278;47.980;18.780;2023-09-19T02:32:48;10.40;;;3.50;;
72325;SDS011;60278;47.980;18.780;2023-09-19T02:35:55;13.13;;;3.50;;
72325;SDS011;60278;47.980;18.780;2023-09-19T02:38:59;11.07;;;3.22;;
72325;SDS011;60278;47.980;18.780;2023-09-19T02:42:01;12.07;;;3.47;;
72325;SDS011;60278;47.980;18.780;2023-09-19T02:45:06;6.78;;;2.95;;
72325;SDS011;60278;47.980;18.780;2023-09-19T02:48:08;8.20;;;2.95;;
72325;SDS011;60278;47.980;18.780;2023-09-19T02:51:10;7.63;;;3.30;;
72325;SDS011;60278;47.980;18.780;2023-09-19T02:54:12;9.57;;;3.60;;
72325;SDS011;60278;47.980;18.780;2023-09-19T02:57:15;9.23;;;3.20;;
72325;SDS011;60278;47.980;18.780;2023-09-19T03:00:19;7.80;;;2.88;;
72325;SDS011;60278;47.980;18.780;2023-09-19T03:03:23;6.03;;;2.90;;
72325;SDS011;60278;47.980;18.780;2023-09-19T03:06:25;6.90;;;3.05;;
72325;SDS011;60278;47.980;18.780;2023-09-19T03:09:28;5.55;;;2.40;;
72325;SDS011;60278;47.980;18.780;2023-09-19T03:12:30;10.33;;;2.40;;
72325;SDS011;60278;47.980;18.780;2023-09-19T03:15:33;6.93;;;2.53;;
72325;SDS011;60278;47.980;18.780;2023-09-19T03:18:36;6.93;;;2.40;;
72325;SDS011;60278;47.980;18.780;2023-09-19T03:21:39;9.90;;;2.20;;
72325;SDS011;60278;47.980;18.780;2023-09-19T03:24:41;11.15;;;2.40;;
72325;SDS011;60278;47.980;18.780;2023-09-19T03:27:45;7.60;;;2.30;;
72325;SDS011;60278;47.980;18.780;2023-09-19T03:31:02;7.20;;;2.00;;
72325;SDS011;60278;47.980;18.780;2023-09-19T03:34:06;7.32;;;2.63;;
72325;SDS011;60278;47.980;18.780;2023-09-19T03:37:11;6.88;;;1.88;;
72325;SDS011;60278;47.980;18.780;2023-09-19T03:40:13;6.50;;;1.70;;
72325;SDS011;60278;47.980;18.780;2023-09-19T03:43:16;7.40;;;1.80;;
72325;SDS011;60278;47.980;18.780;2023-09-19T03:46:19;5.43;;;1.75;;
72325;SDS011;60278;47.980;18.780;2023-09-19T03:49:22;3.65;;;1.35;;
72325;SDS011;60278;47.980;18.780;2023-09-19T03:52:24;5.70;;;1.60;;
72325;SDS011;60278;47.980;18.780;2023-09-19T03:55:26;5.18;;;1.70;;
72325;SDS011;60278;47.980;18.780;2023-09-19T03:58:29;5.47;;;1.63;;
72325;SDS011;60278;47.980;18.780;2023-09-19T04:01:31;8.07;;;1.70;;
72325;SDS011;60278;47.980;18.780;2023-09-19T04:04:35;4.28;;;1.30;;
72325;SDS011;60278;47.980;18.780;2023-09-19T04:07:37;6.35;;;1.60;;
72325;SDS011;60278;47.980;18.780;2023-09-19T04:10:43;4.18;;;1.52;;
72325;SDS011;60278;47.980;18.780;2023-09-19T04:13:45;5.37;;;1.60;;
72325;SDS011;60278;47.980;18.780;2023-09-19T04:16:47;4.20;;;1.70;;
72325;SDS011;60278;47.980;18.780;2023-09-19T04:19:50;6.28;;;1.70;;
72325;SDS011;60278;47.980;18.780;2023-09-19T04:22:52;7.88;;;1.55;;
72325;SDS011;60278;47.980;18.780;2023-09-19T04:25:54;5.93;;;1.63;;
72325;SDS011;60278;47.980;18.780;2023-09-19T04:28:57;4.57;;;1.30;;
72325;SDS011;60278;47.980;18.780;2023-09-19T04:31:59;3.78;;;1.25;;
72325;SDS011;60278;47.980;18.780;2023-09-19T04:35:01;4.85;;;1.80;;
72325;SDS011;60278;47.980;18.780;2023-09-19T04:38:07;9.23;;;1.60;;
72325;SDS011;60278;47.980;18.780;2023-09-19T04:41:09;5.10;;;1.80;;
72325;SDS011;60278;47.980;18.780;2023-09-19T04:44:11;7.37;;;2.10;;
72325;SDS011;60278;47.980;18.780;2023-09-19T04:47:14;4.00;;;1.70;;
72325;SDS011;60278;47.980;18.780;2023-09-19T04:50:18;3.97;;;1.45;;
72325;SDS011;60278;47.980;18.780;2023-09-19T04:53:20;4.38;;;2.08;;
72325;SDS011;60278;47.980;18.780;2023-09-19T04:56:23;3.80;;;2.00;;
72325;SDS011;60278;47.980;18.780;2023-09-19T04:59:26;4.73;;;2.20;;
72325;SDS011;60278;47.980;18.780;2023-09-19T05:02:29;7.63;;;2.33;;
72325;SDS011;60278;47.980;18.780;2023-09-19T05:05:32;5.25;;;2.17;;
72325;SDS011;60278;47.980;18.780;2023-09-19T05:08:36;7.07;;;1.90;;
72325;SDS011;60278;47.980;18.780;2023-09-19T05:11:38;4.88;;;1.70;;
72325;SDS011;60278;47.980;18.780;2023-09-19T05:14:40;6.00;;;1.90;;
72325;SDS011;60278;47.980;18.780;2023-09-19T05:17:49;8.02;;;1.70;;
72325;SDS011;60278;47.980;18.780;2023-09-19T05:20:56;5.70;;;1.80;;
72325;SDS011;60278;47.980;18.780;2023-09-19T05:23:58;6.22;;;1.70;;
72325;SDS011;60278;47.980;18.780;2023-09-19T05:27:00;5.18;;;1.73;;
72325;SDS011;60278;47.980;18.780;2023-09-19T05:30:02;4.13;;;2.00;;
72325;SDS011;60278;47.980;18.780;2023-09-19T05:33:05;6.93;;;2.22;;
72325;SDS011;60278;47.980;18.780;2023-09-19T05:36:07;8.48;;;2.10;;
72325;SDS011;60278;47.980;18.780;2023-09-19T05:39:11;6.38;;;1.90;;
72325;SDS011;60278;47.980;18.780;2023-09-19T05:42:14;3.80;;;1.80;;
72325;SDS011;60278;47.980;18.780;2023-09-19T05:45:16;7.73;;;1.83;;
72325;SDS011;60278;47.980;18.780;2023-09-19T05:48:24;3.50;;;1.75;;
72325;SDS011;60278;47.980;18.780;2023-09-19T05:51:26;8.70;;;1.80;;
72325;SDS011;60278;47.980;18.780;2023-09-19T05:54:30;6.47;;;1.60;;
72325;SDS011;60278;47.980;18.780;2023-09-19T05:57:32;4.43;;;1.65;;
72325;SDS011;60278;47.980;18.780;2023-09-19T06:00:34;7.10;;;1.43;;
72325;SDS011;60278;47.980;18.780;2023-09-19T06:03:39;13.52;;;1.65;;
72325;SDS011;60278;47.980;18.780;2023-09-19T06:06:42;5.55;;;1.70;;
72325;SDS011;60278;47.980;18.780;2023-09-19T06:09:44;3.15;;;1.23;;
72325;SDS011;60278;47.980;18.780;2023-09-19T06:12:46;4.95;;;1.40;;
72325;SDS011;60278;47.980;18.780;2023-09-19T06:15:48;4.53;;;1.40;;
72325;SDS011;60278;47.980;18.780;2023-09-19T06:18:51;5.53;;;1.95;;
72325;SDS011;60278;47.980;18.780;2023-09-19T06:21:54;6.90;;;2.25;;
72325;SDS011;60278;47.980;18.780;2023-09-19T06:24:56;4.32;;;1.70;;
72325;SDS011;60278;47.980;18.780;2023-09-19T06:27:59;5.35;;;1.90;;
72325;SDS011;60278;47.980;18.780;2023-09-19T06:31:04;5.67;;;1.90;;
72325;SDS011;60278;47.980;18.780;2023-09-19T06:34:11;4.57;;;1.80;;
72325;SDS011;60278;47.980;18.780;2023-09-19T06:37:15;4.13;;;1.73;;
72325;SDS011;60278;47.980;18.780;2023-09-19T06:40:18;4.18;;;1.92;;
72325;SDS011;60278;47.980;18.780;2023-09-19T06:43:21;4.32;;;2.00;;
72325;SDS011;60278;47.980;18.780;2023-09-19T06:46:23;4.73;;;2.00;;
72325;SDS011;60278;47.980;18.780;2023-09-19T06:49:26;7.20;;;1.92;;
72325;SDS011;60278;47.980;18.780;2023-09-19T06:52:31;5.80;;;1.92;;
72325;SDS011;60278;47.980;18.780;2023-09-19T06:55:35;5.60;;;1.80;;
72325;SDS011;60278;47.980;18.780;2023-09-19T06:58:38;4.57;;;2.30;;
72325;SDS011;60278;47.980;18.780;2023-09-19T07:01:40;4.13;;;1.90;;
72325;SDS011;60278;47.980;18.780;2023-09-19T07:04:47;5.72;;;2.03;;
72325;SDS011;60278;47.980;18.780;2023-09-19T07:07:50;7.38;;;2.03;;
72325;SDS011;60278;47.980;18.780;2023-09-19T07:10:52;4.05;;;2.35;;
72325;SDS011;60278;47.980;18.780;2023-09-19T07:13:56;5.45;;;2.50;;
72325;SDS011;60278;47.980;18.780;2023-09-19T07:17:00;6.50;;;2.40;;
72325;SDS011;60278;47.980;18.780;2023-09-19T07:20:02;4.85;;;2.00;;
72325;SDS011;60278;47.980;18.780;2023-09-19T07:23:10;5.85;;;2.35;;
72325;SDS011;60278;47.980;18.780;2023-09-19T07:26:12;6.90;;;2.00;;
72325;SDS011;60278;47.980;18.780;2023-09-19T07:29:15;5.00;;;1.98;;
72325;SDS011;60278;47.980;18.780;2023-09-19T07:32:17;4.83;;;1.87;;
72325;SDS011;60278;47.980;18.780;2023-09-19T07:35:19;6.25;;;1.80;;
72325;SDS011;60278;47.980;18.780;2023-09-19T07:38:24;4.65;;;2.03;;
72325;SDS011;60278;47.980;18.780;2023-09-19T07:41:26;5.45;;;1.70;;
72325;SDS011;60278;47.980;18.780;2023-09-19T07:44:29;7.82;;;2.25;;
72325;SDS011;60278;47.980;18.780;2023-09-19T07:47:31;6.60;;;1.90;;
72325;SDS011;60278;47.980;18.780;2023-09-19T07:50:34;3.53;;;1.95;;
72325;SDS011;60278;47.980;18.780;2023-09-19T07:53:42;4.55;;;2.00;;
72325;SDS011;60278;47.980;18.780;2023-09-19T07:56:45;5.68;;;1.70;;
72325;SDS011;60278;47.980;18.780;2023-09-19T07:59:47;6.38;;;1.70;;
72325;SDS011;60278;47.980;18.780;2023-09-19T08:02:49;5.00;;;1.60;;
72325;SDS011;60278;47.980;18.780;2023-09-19T08:06:05;8.70;;;1.42;;
72325;SDS011;60278;47.980;18.780;2023-09-19T08:09:08;5.45;;;1.88;;
72325;SDS011;60278;47.980;18.780;2023-09-19T08:12:12;3.38;;;1.55;;
72325;SDS011;60278;47.980;18.780;2023-09-19T08:15:17;4.88;;;1.77;;
72325;SDS011;60278;47.980;18.780;2023-09-19T08:18:19;6.37;;;2.10;;
72325;SDS011;60278;47.980;18.780;2023-09-19T08:21:24;6.50;;;2.03;;
72325;SDS011;60278;47.980;18.780;2023-09-19T08:24:28;4.25;;;1.90;;
72325;SDS011;60278;47.980;18.780;2023-09-19T08:27:30;3.58;;;1.48;;
72325;SDS011;60278;47.980;18.780;2023-09-19T08:30:32;5.22;;;1.70;;
72325;SDS011;60278;47.980;18.780;2023-09-19T08:33:36;6.30;;;1.53;;
72325;SDS011;60278;47.980;18.780;2023-09-19T08:36:40;4.50;;;1.98;;
72325;SDS011;60278;47.980;18.780;2023-09-19T08:39:43;6.25;;;1.73;;
72325;SDS011;60278;47.980;18.780;2023-09-19T08:42:53;4.72;;;1.80;;
72325;SDS011;60278;47.980;18.780;2023-09-19T08:46:02;4.07;;;1.80;;
72325;SDS011;60278;47.980;18.780;2023-09-19T08:49:08;5.50;;;1.63;;
72325;SDS011;60278;47.980;18.780;2023-09-19T08:52:16;5.10;;;1.70;;
72325;SDS011;60278;47.980;18.780;2023-09-19T08:55:23;5.63;;;1.73;;
72325;SDS011;60278;47.980;18.780;2023-09-19T08:58:31;4.85;;;1.80;;
72325;SDS011;60278;47.980;18.780;2023-09-19T09:01:37;3.70;;;1.80;;
72325;SDS011;60278;47.980;18.780;2023-09-19T09:04:40;7.17;;;1.70;;
72325;SDS011;60278;47.980;18.780;2023-09-19T09:07:43;6.60;;;1.88;;
72325;SDS011;60278;47.980;18.780;2023-09-19T09:10:45;7.10;;;1.90;;
72325;SDS011;60278;47.980;18.780;2023-09-19T09:13:48;4.75;;;1.75;;
72325;SDS011;60278;47.980;18.780;2023-09-19T09:16:50;4.07;;;1.88;;
72325;SDS011;60278;47.980;18.780;2023-09-19T09:19:52;5.30;;;1.97;;
72325;SDS011;60278;47.980;18.780;2023-09-19T09:22:55;4.40;;;1.73;;
72325;SDS011;60278;47.980;18.780;2023-09-19T09:26:00;6.90;;;1.95;;
72325;SDS011;60278;47.980;18.780;2023-09-19T09:29:07;3.55;;;1.60;;
72325;SDS011;60278;47.980;18.780;2023-09-19T09:32:22;5.88;;;2.25;;
72325;SDS011;60278;47.980;18.780;2023-09-19T09:35:25;4.13;;;1.67;;
72325;SDS011;60278;47.980;18.780;2023-09-19T09:38:45;5.75;;;2.00;;
72325;SDS011;60278;47.980;18.780;2023-09-19T09:41:48;6.22;;;2.00;;
72325;SDS011;60278;47.980;18.780;2023-09-19T09:44:58;10.93;;;2.20;;
72325;SDS011;60278;47.980;18.780;2023-09-19T09:48:14;5.38;;;2.47;;
72325;SDS011;60278;47.980;18.780;2023-09-19T09:51:28;5.77;;;2.30;;
72325;SDS011;60278;47.980;18.780;2023-09-19T09:54:32;5.50;;;2.15;;
72325;SDS011;60278;47.980;18.780;2023-09-19T09:57:36;6.22;;;2.10;;
72325;SDS011;60278;47.980;18.780;2023-09-19T10:00:51;6.50;;;1.80;;
72325;SDS011;60278;47.980;18.780;2023-09-19T10:03:57;5.53;;;1.92;;
72325;SDS011;60278;47.980;18.780;2023-09-19T10:10:03;6.72;;;2.40;;
72325;SDS011;60278;47.980;18.780;2023-09-19T10:13:18;4.88;;;2.33;;
72325;SDS011;60278;47.980;18.780;2023-09-19T10:16:23;4.83;;;2.43;;
72325;SDS011;60278;47.980;18.780;2023-09-19T10:19:36;5.55;;;2.35;;
72325;SDS011;60278;47.980;18.780;2023-09-19T10:22:39;8.82;;;2.22;;
72325;SDS011;60278;47.980;18.780;2023-09-19T10:25:44;4.93;;;2.08;;
72325;SDS011;60278;47.980;18.780;2023-09-19T10:28:49;4.85;;;2.10;;
72325;SDS011;60278;47.980;18.780;2023-09-19T10:31:52;7.30;;;2.70;;
72325;SDS011;60278;47.980;18.780;2023-09-19T10:34:55;4.20;;;1.98;;
72325;SDS011;60278;47.980;18.780;2023-09-19T10:38:01;4.68;;;2.40;;
72325;SDS011;60278;47.980;18.780;2023-09-19T10:41:04;6.03;;;2.40;;
72325;SDS011;60278;47.980;18.780;2023-09-19T10:44:07;12.90;;;2.42;;
72325;SDS011;60278;47.980;18.780;2023-09-19T10:47:11;4.77;;;2.20;;
72325;SDS011;60278;47.980;18.780;2023-09-19T10:50:19;6.05;;;2.13;;
72325;SDS011;60278;47.980;18.780;2023-09-19T10:53:24;5.05;;;2.40;;
72325;SDS011;60278;47.980;18.780;2023-09-19T10:56:27;7.45;;;2.30;;
72325;SDS011;60278;47.980;18.780;2023-09-19T10:59:34;5.32;;;1.92;;
72325;SDS011;60278;47.980;18.780;2023-09-19T11:02:37;4.37;;;1.93;;
72325;SDS011;60278;47.980;18.780;2023-09-19T11:05:39;4.97;;;1.98;;
72325;SDS011;60278;47.980;18.780;2023-09-19T11:18:51;7.03;;;2.03;;
72325;SDS011;60278;47.980;18.780;2023-09-19T11:21:55;4.60;;;1.77;;
72325;SDS011;60278;47.980;18.780;2023-09-19T11:25:09;9.60;;;1.88;;
72325;SDS011;60278;47.980;18.780;2023-09-19T11:31:41;3.97;;;1.88;;
72325;SDS011;60278;47.980;18.780;2023-09-19T11:34:45;7.30;;;2.23;;
72325;SDS011;60278;47.980;18.780;2023-09-19T11:41:02;8.23;;;2.70;;
72325;SDS011;60278;47.980;18.780;2023-09-19T11:47:14;4.38;;;2.17;;
72325;SDS011;60278;47.980;18.780;2023-09-19T11:50:20;6.77;;;2.17;;
72325;SDS011;60278;47.980;18.780;2023-09-19T11:53:22;4.93;;;2.30;;
72325;SDS011;60278;47.980;18.780;2023-09-19T11:56:24;6.65;;;2.17;;
72325;SDS011;60278;47.980;18.780;2023-09-19T11:59:30;6.18;;;2.30;;
72325;SDS011;60278;47.980;18.780;2023-09-19T12:02:38;4.60;;;2.28;;
72325;SDS011;60278;47.980;18.780;2023-09-19T12:05:42;6.07;;;2.30;;
72325;SDS011;60278;47.980;18.780;2023-09-19T12:08:45;4.72;;;2.33;;
72325;SDS011;60278;47.980;18.780;2023-09-19T12:11:50;5.22;;;2.17;;
72325;SDS011;60278;47.980;18.780;2023-09-19T12:14:53;4.82;;;2.40;;
72325;SDS011;60278;47.980;18.780;2023-09-19T12:17:56;4.93;;;1.95;;
72325;SDS011;60278;47.980;18.780;2023-09-19T12:20:59;5.93;;;2.30;;
72325;SDS011;60278;47.980;18.780;2023-09-19T12:24:07;4.63;;;1.98;;
72325;SDS011;60278;47.980;18.780;2023-09-19T12:27:15;4.57;;;1.90;;
72325;SDS011;60278;47.980;18.780;2023-09-19T12:30:17;5.13;;;1.90;;
72325;SDS011;60278;47.980;18.780;2023-09-19T12:33:28;4.45;;;1.60;;
72325;SDS011;60278;47.980;18.780;2023-09-19T12:36:31;4.90;;;1.80;;
72325;SDS011;60278;47.980;18.780;2023-09-19T12:39:36;5.93;;;1.85;;
72325;SDS011;60278;47.980;18.780;2023-09-19T12:42:38;5.57;;;2.00;;
72325;SDS011;60278;47.980;18.780;2023-09-19T12:45:40;6.53;;;2.13;;
72325;SDS011;60278;47.980;18.780;2023-09-19T12:48:44;6.50;;;2.10;;
72325;SDS011;60278;47.980;18.780;2023-09-19T12:51:47;6.17;;;2.27;;
72325;SDS011;60278;47.980;18.780;2023-09-19T12:54:49;5.38;;;2.20;;
72325;SDS011;60278;47.980;18.780;2023-09-19T13:00:58;6.28;;;1.85;;
72325;SDS011;60278;47.980;18.780;2023-09-19T13:04:12;9.07;;;2.53;;
72325;SDS011;60278;47.980;18.780;2023-09-19T13:10:59;10.32;;;2.63;;
72325;SDS011;60278;47.980;18.780;2023-09-19T13:17:24;10.52;;;2.25;;
72325;SDS011;60278;47.980;18.780;2023-09-19T13:20:27;5.22;;;2.10;;
72325;SDS011;60278;47.980;18.780;2023-09-19T13:23:29;7.87;;;1.90;;
72325;SDS011;60278;47.980;18.780;2023-09-19T13:26:32;4.20;;;1.98;;
72325;SDS011;60278;47.980;18.780;2023-09-19T13:29:34;5.65;;;1.92;;
72325;SDS011;60278;47.980;18.780;2023-09-19T13:32:37;5.57;;;1.98;;
72325;SDS011;60278;47.980;18.780;2023-09-19T13:35:41;5.70;;;2.17;;
72325;SDS011;60278;47.980;18.780;2023-09-19T13:38:43;6.70;;;1.90;;
72325;SDS011;60278;47.980;18.780;2023-09-19T13:41:49;6.32;;;2.20;;
72325;SDS011;60278;47.980;18.780;2023-09-19T13:44:51;7.47;;;2.00;;
72325;SDS011;60278;47.980;18.780;2023-09-19T13:47:54;4.03;;;1.50;;
72325;SDS011;60278;47.980;18.780;2023-09-19T13:50:57;4.63;;;1.65;;
72325;SDS011;60278;47.980;18.780;2023-09-19T13:53:59;4.13;;;1.70;;
72325;SDS011;60278;47.980;18.780;2023-09-19T13:57:01;4.45;;;1.67;;
72325;SDS011;60278;47.980;18.780;2023-09-19T14:00:03;5.40;;;1.60;;
72325;SDS011;60278;47.980;18.780;2023-09-19T14:03:12;3.55;;;1.50;;
72325;SDS011;60278;47.980;18.780;2023-09-19T14:06:17;6.60;;;1.80;;
72325;SDS011;60278;47.980;18.780;2023-09-19T14:09:19;4.57;;;1.57;;
72325;SDS011;60278;47.980;18.780;2023-09-19T14:12:22;4.93;;;1.52;;
72325;SDS011;60278;47.980;18.780;2023-09-19T14:15:25;4.75;;;1.80;;
72325;SDS011;60278;47.980;18.780;2023-09-19T14:18:31;5.32;;;2.20;;
72325;SDS011;60278;47.980;18.780;2023-09-19T14:21:34;5.78;;;1.80;;
72325;SDS011;60278;47.980;18.780;2023-09-19T14:24:38;3.90;;;1.37;;
72325;SDS011;60278;47.980;18.780;2023-09-19T14:27:40;6.40;;;1.70;;
72325;SDS011;60278;47.980;18.780;2023-09-19T14:30:43;8.45;;;1.95;;
72325;SDS011;60278;47.980;18.780;2023-09-19T14:33:45;3.92;;;1.45;;
72325;SDS011;60278;47.980;18.780;2023-09-19T14:36:48;8.77;;;1.88;;
72325;SDS011;60278;47.980;18.780;2023-09-19T14:39:50;11.53;;;2.40;;
72325;SDS011;60278;47.980;18.780;2023-09-19T14:42:52;13.65;;;3.00;;
72325;SDS011;60278;47.980;18.780;2023-09-19T14:45:54;6.80;;;1.70;;
72325;SDS011;60278;47.980;18.780;2023-09-19T14:48:57;13.63;;;2.65;;
72325;SDS011;60278;47.980;18.780;2023-09-19T14:52:01;3.90;;;1.70;;
72325;SDS011;60278;47.980;18.780;2023-09-19T14:55:06;7.10;;;1.80;;
72325;SDS011;60278;47.980;18.780;2023-09-19T14:58:10;7.07;;;1.77;;
72325;SDS011;60278;47.980;18.780;2023-09-19T15:01:14;4.47;;;1.50;;
72325;SDS011;60278;47.980;18.780;2023-09-19T15:04:16;4.78;;;1.42;;
72325;SDS011;60278;47.980;18.780;2023-09-19T15:07:18;3.92;;;1.60;;
72325;SDS011;60278;47.980;18.780;2023-09-19T15:10:21;3.37;;;1.53;;
72325;SDS011;60278;47.980;18.780;2023-09-19T15:13:24;4.45;;;1.40;;
72325;SDS011;60278;47.980;18.780;2023-09-19T15:16:30;4.20;;;1.40;;
72325;SDS011;60278;47.980;18.780;2023-09-19T15:19:33;4.63;;;1.80;;
72325;SDS011;60278;47.980;18.780;2023-09-19T15:22:35;4.75;;;1.80;;
72325;SDS011;60278;47.980;18.780;2023-09-19T15:25:38;4.17;;;1.80;;
72325;SDS011;60278;47.980;18.780;2023-09-19T15:28:42;7.15;;;1.35;;
72325;SDS011;60278;47.980;18.780;2023-09-19T15:31:44;3.75;;;1.85;;
72325;SDS011;60278;47.980;18.780;2023-09-19T15:34:47;8.18;;;2.10;;
72325;SDS011;60278;47.980;18.780;2023-09-19T15:37:49;4.38;;;1.80;;
72325;SDS011;60278;47.980;18.780;2023-09-19T15:40:52;2.90;;;1.50;;
72325;SDS011;60278;47.980;18.780;2023-09-19T15:43:54;5.18;;;1.85;;
72325;SDS011;60278;47.980;18.780;2023-09-19T15:46:56;4.40;;;1.50;;
72325;SDS011;60278;47.980;18.780;2023-09-19T15:49:59;4.05;;;1.30;;
72325;SDS011;60278;47.980;18.780;2023-09-19T15:53:01;4.65;;;1.73;;
72325;SDS011;60278;47.980;18.780;2023-09-19T15:56:06;3.90;;;1.70;;
72325;SDS011;60278;47.980;18.780;2023-09-19T15:59:08;4.40;;;1.60;;
72325;SDS011;60278;47.980;18.780;2023-09-19T16:02:11;5.20;;;1.50;;
72325;SDS011;60278;47.980;18.780;2023-09-19T16:05:14;9.15;;;1.85;;
72325;SDS011;60278;47.980;18.780;2023-09-19T16:08:16;7.45;;;2.00;;
72325;SDS011;60278;47.980;18.780;2023-09-19T16:11:19;3.63;;;1.50;;
72325;SDS011;60278;47.980;18.780;2023-09-19T16:14:22;4.18;;;1.20;;
72325;SDS011;60278;47.980;18.780;2023-09-19T16:17:24;5.50;;;1.40;;
72325;SDS011;60278;47.980;18.780;2023-09-19T16:20:27;2.85;;;1.50;;
72325;SDS011;60278;47.980;18.780;2023-09-19T16:23:30;3.33;;;1.42;;
72325;SDS011;60278;47.980;18.780;2023-09-19T16:26:37;4.13;;;1.43;;
72325;SDS011;60278;47.980;18.780;2023-09-19T16:29:39;3.47;;;1.50;;
72325;SDS011;60278;47.980;18.780;2023-09-19T16:32:41;3.20;;;1.30;;
72325;SDS011;60278;47.980;18.780;2023-09-19T16:35:43;4.60;;;1.48;;
72325;SDS011;60278;47.980;18.780;2023-09-19T16:38:47;3.22;;;1.67;;
72325;SDS011;60278;47.980;18.780;2023-09-19T16:41:51;3.13;;;1.20;;
72325;SDS011;60278;47.980;18.780;2023-09-19T16:44:53;5.13;;;1.55;;
72325;SDS011;60278;47.980;18.780;2023-09-19T16:47:56;4.43;;;1.30;;
72325;SDS011;60278;47.980;18.780;2023-09-19T16:51:01;5.35;;;1.40;;
72325;SDS011;60278;47.980;18.780;2023-09-19T16:54:07;3.78;;;1.40;;
72325;SDS011;60278;47.980;18.780;2023-09-19T16:57:10;4.17;;;1.33;;
72325;SDS011;60278;47.980;18.780;2023-09-19T17:00:12;3.38;;;1.63;;
72325;SDS011;60278;47.980;18.780;2023-09-19T17:03:16;6.13;;;2.00;;
72325;SDS011;60278;47.980;18.780;2023-09-19T17:06:18;3.28;;;1.58;;
72325;SDS011;60278;47.980;18.780;2023-09-19T17:09:24;5.07;;;2.00;;
72325;SDS011;60278;47.980;18.780;2023-09-19T17:12:26;4.97;;;1.70;;
72325;SDS011;60278;47.980;18.780;2023-09-19T17:15:28;6.18;;;1.90;;
72325;SDS011;60278;47.980;18.780;2023-09-19T17:18:33;7.60;;;2.38;;
72325;SDS011;60278;47.980;18.780;2023-09-19T17:21:36;6.47;;;2.63;;
72325;SDS011;60278;47.980;18.780;2023-09-19T17:24:38;7.35;;;2.80;;
72325;SDS011;60278;47.980;18.780;2023-09-19T17:27:40;8.63;;;3.00;;
72325;SDS011;60278;47.980;18.780;2023-09-19T17:30:42;8.50;;;2.38;;
72325;SDS011;60278;47.980;18.780;2023-09-19T17:33:45;8.68;;;3.15;;
72325;SDS011;60278;47.980;18.780;2023-09-19T17:36:47;9.00;;;3.17;;
72325;SDS011;60278;47.980;18.780;2023-09-19T17:39:49;6.60;;;3.15;;
72325;SDS011;60278;47.980;18.780;2023-09-19T17:42:51;10.13;;;3.27;;
72325;SDS011;60278;47.980;18.780;2023-09-19T17:45:53;8.10;;;3.55;;
72325;SDS011;60278;47.980;18.780;2023-09-19T17:48:56;12.60;;;3.05;;
72325;SDS011;60278;47.980;18.780;2023-09-19T17:51:58;4.90;;;2.40;;
72325;SDS011;60278;47.980;18.780;2023-09-19T17:55:00;7.35;;;2.63;;
72325;SDS011;60278;47.980;18.780;2023-09-19T17:58:02;7.73;;;2.53;;
72325;SDS011;60278;47.980;18.780;2023-09-19T18:01:12;5.05;;;2.22;;
72325;SDS011;60278;47.980;18.780;2023-09-19T18:04:14;4.68;;;2.35;;
72325;SDS011;60278;47.980;18.780;2023-09-19T18:07:16;6.75;;;2.60;;
72325;SDS011;60278;47.980;18.780;2023-09-19T18:10:18;6.82;;;2.80;;
72325;SDS011;60278;47.980;18.780;2023-09-19T18:13:21;5.87;;;2.60;;
72325;SDS011;60278;47.980;18.780;2023-09-19T18:16:23;6.40;;;3.10;;
72325;SDS011;60278;47.980;18.780;2023-09-19T18:19:34;6.85;;;3.03;;
72325;SDS011;60278;47.980;18.780;2023-09-19T18:22:36;6.47;;;2.60;;
72325;SDS011;60278;47.980;18.780;2023-09-19T18:25:38;4.97;;;2.30;;
72325;SDS011;60278;47.980;18.780;2023-09-19T18:28:40;7.57;;;2.10;;
72325;SDS011;60278;47.980;18.780;2023-09-19T18:31:42;4.97;;;2.40;;
72325;SDS011;60278;47.980;18.780;2023-09-19T18:34:46;8.80;;;2.05;;
72325;SDS011;60278;47.980;18.780;2023-09-19T18:37:49;7.93;;;2.13;;
72325;SDS011;60278;47.980;18.780;2023-09-19T18:40:53;6.18;;;2.60;;
72325;SDS011;60278;47.980;18.780;2023-09-19T18:43:58;8.17;;;2.63;;
72325;SDS011;60278;47.980;18.780;2023-09-19T18:47:01;4.43;;;2.70;;
72325;SDS011;60278;47.980;18.780;2023-09-19T18:50:04;8.90;;;2.45;;
72325;SDS011;60278;47.980;18.780;2023-09-19T18:53:06;5.07;;;2.50;;